sensor_id;sensor_type;location;lat;lon;timestamp;pressure;altitude;pressure_sealevel;temperature;humidity
11682;BME280;5897;42.640;23.310;2023-07-29T00:01:44;93798.25;;;19.51;65.57
11682;BME280;5897;42.640;23.310;2023-07-29T00:04:11;93790.81;;;19.57;65.36
11682;BME280;5897;42.640;23.310;2023-07-29T00:06:38;93791.88;;;19.65;65.02
11682;BME280;5897;42.640;23.310;2023-07-29T00:09:06;93798.88;;;19.66;65.22
11682;BME280;5897;42.640;23.310;2023-07-29T00:11:33;93800.41;;;19.72;65.03
11682;BME280;5897;42.640;23.310;2023-07-29T00:14:00;93801.19;;;19.78;65.06
11682;BME280;5897;42.640;23.310;2023-07-29T00:16:27;93810.47;;;19.55;66.37
11682;BME280;5897;42.640;23.310;2023-07-29T00:18:54;93813.97;;;19.56;66.69
11682;BME280;5897;42.640;23.310;2023-07-29T00:21:20;93797.53;;;19.56;66.53
11682;BME280;5897;42.640;23.310;2023-07-29T00:23:47;93798.50;;;19.53;66.83
11682;BME280;5897;42.640;23.310;2023-07-29T00:26:15;93795.75;;;19.53;66.70
11682;BME280;5897;42.640;23.310;2023-07-29T00:28:42;93794.97;;;19.47;67.10
11682;BME280;5897;42.640;23.310;2023-07-29T00:31:09;93801.25;;;19.53;67.48
11682;BME280;5897;42.640;23.310;2023-07-29T00:33:36;93788.53;;;19.50;67.38
11682;BME280;5897;42.640;23.310;2023-07-29T00:36:03;93794.00;;;19.50;67.03
11682;BME280;5897;42.640;23.310;2023-07-29T00:38:30;93789.09;;;19.59;66.10
11682;BME280;5897;42.640;23.310;2023-07-29T00:40:57;93792.16;;;19.67;65.62
11682;BME280;5897;42.640;23.310;2023-07-29T00:43:25;93790.91;;;19.68;65.80
11682;BME280;5897;42.640;23.310;2023-07-29T00:45:52;93794.59;;;19.65;66.07
11682;BME280;5897;42.640;23.310;2023-07-29T00:48:19;93794.25;;;19.52;66.35
11682;BME280;5897;42.640;23.310;2023-07-29T00:50:46;93793.44;;;19.40;66.55
11682;BME280;5897;42.640;23.310;2023-07-29T00:53:13;93789.22;;;19.45;66.71
11682;BME280;5897;42.640;23.310;2023-07-29T00:55:40;93787.44;;;19.42;66.84
11682;BME280;5897;42.640;23.310;2023-07-29T00:58:07;93787.38;;;19.31;67.20
11682;BME280;5897;42.640;23.310;2023-07-29T01:00:35;93782.31;;;19.24;67.62
11682;BME280;5897;42.640;23.310;2023-07-29T01:03:03;93781.91;;;19.31;67.64
11682;BME280;5897;42.640;23.310;2023-07-29T01:05:36;93780.97;;;19.39;67.46
11682;BME280;5897;42.640;23.310;2023-07-29T01:08:17;93784.63;;;19.31;67.68
11682;BME280;5897;42.640;23.310;2023-07-29T01:10:54;93779.03;;;19.20;69.00
11682;BME280;5897;42.640;23.310;2023-07-29T01:13:30;93779.72;;;19.15;69.74
11682;BME280;5897;42.640;23.310;2023-07-29T01:16:03;93776.47;;;19.16;69.49
11682;BME280;5897;42.640;23.310;2023-07-29T01:18:35;93781.94;;;19.11;69.74
11682;BME280;5897;42.640;23.310;2023-07-29T01:21:04;93778.94;;;19.09;69.82
11682;BME280;5897;42.640;23.310;2023-07-29T01:23:35;93779.16;;;19.05;69.90
11682;BME280;5897;42.640;23.310;2023-07-29T01:26:01;93785.63;;;19.08;69.86
11682;BME280;5897;42.640;23.310;2023-07-29T01:28:28;93780.66;;;19.06;70.13
11682;BME280;5897;42.640;23.310;2023-07-29T01:31:01;93780.53;;;18.95;70.73
11682;BME280;5897;42.640;23.310;2023-07-29T01:33:34;93788.75;;;18.95;70.73
11682;BME280;5897;42.640;23.310;2023-07-29T01:36:04;93791.00;;;18.97;70.29
11682;BME280;5897;42.640;23.310;2023-07-29T01:38:38;93783.75;;;18.94;70.34
11682;BME280;5897;42.640;23.310;2023-07-29T01:41:07;93787.94;;;18.89;70.39
11682;BME280;5897;42.640;23.310;2023-07-29T01:43:35;93777.00;;;18.69;71.37
11682;BME280;5897;42.640;23.310;2023-07-29T01:46:09;93783.19;;;18.64;71.94
11682;BME280;5897;42.640;23.310;2023-07-29T01:48:36;93778.59;;;18.56;72.27
11682;BME280;5897;42.640;23.310;2023-07-29T01:51:03;93791.88;;;18.63;71.72
11682;BME280;5897;42.640;23.310;2023-07-29T01:53:30;93785.09;;;18.58;72.15
11682;BME280;5897;42.640;23.310;2023-07-29T01:55:58;93780.94;;;18.63;72.10
11682;BME280;5897;42.640;23.310;2023-07-29T01:58:25;93775.03;;;18.70;71.42
11682;BME280;5897;42.640;23.310;2023-07-29T02:00:52;93779.22;;;18.65;71.43
11682;BME280;5897;42.640;23.310;2023-07-29T02:03:18;93781.03;;;18.48;72.40
11682;BME280;5897;42.640;23.310;2023-07-29T02:05:45;93783.13;;;18.39;73.13
11682;BME280;5897;42.640;23.310;2023-07-29T02:08:12;93770.69;;;18.38;73.01
11682;BME280;5897;42.640;23.310;2023-07-29T02:10:39;93780.81;;;18.32;73.62
11682;BME280;5897;42.640;23.310;2023-07-29T02:13:08;93776.38;;;18.34;73.29
11682;BME280;5897;42.640;23.310;2023-07-29T02:15:34;93778.88;;;18.18;74.27
11682;BME280;5897;42.640;23.310;2023-07-29T02:18:01;93780.78;;;18.12;74.79
11682;BME280;5897;42.640;23.310;2023-07-29T02:20:28;93786.44;;;18.08;75.12
11682;BME280;5897;42.640;23.310;2023-07-29T02:22:55;93784.00;;;18.10;75.13
11682;BME280;5897;42.640;23.310;2023-07-29T02:25:22;93781.66;;;18.03;75.47
11682;BME280;5897;42.640;23.310;2023-07-29T02:27:49;93785.19;;;17.89;76.52
11682;BME280;5897;42.640;23.310;2023-07-29T02:30:17;93799.47;;;17.99;75.96
11682;BME280;5897;42.640;23.310;2023-07-29T02:32:43;93791.16;;;18.08;75.73
11682;BME280;5897;42.640;23.310;2023-07-29T02:35:11;93792.66;;;18.09;75.60
11682;BME280;5897;42.640;23.310;2023-07-29T02:37:38;93788.22;;;18.11;75.70
11682;BME280;5897;42.640;23.310;2023-07-29T02:40:05;93788.53;;;17.79;76.70
11682;BME280;5897;42.640;23.310;2023-07-29T02:42:32;93791.81;;;17.83;76.79
11682;BME280;5897;42.640;23.310;2023-07-29T02:44:59;93790.03;;;17.80;77.30
11682;BME280;5897;42.640;23.310;2023-07-29T02:47:27;93788.47;;;17.59;78.43
11682;BME280;5897;42.640;23.310;2023-07-29T02:49:54;93787.34;;;17.51;79.06
11682;BME280;5897;42.640;23.310;2023-07-29T02:52:21;93779.81;;;17.46;79.52
11682;BME280;5897;42.640;23.310;2023-07-29T02:54:48;93779.44;;;17.53;79.06
11682;BME280;5897;42.640;23.310;2023-07-29T02:57:15;93788.47;;;17.59;79.26
11682;BME280;5897;42.640;23.310;2023-07-29T02:59:42;93788.25;;;17.62;79.62
11682;BME280;5897;42.640;23.310;2023-07-29T03:02:09;93789.19;;;17.74;79.05
11682;BME280;5897;42.640;23.310;2023-07-29T03:04:38;93792.56;;;17.83;78.91
11682;BME280;5897;42.640;23.310;2023-07-29T03:07:04;93795.38;;;17.89;78.57
11682;BME280;5897;42.640;23.310;2023-07-29T03:09:31;93803.91;;;17.96;78.30
11682;BME280;5897;42.640;23.310;2023-07-29T03:11:58;93807.69;;;17.99;78.01
11682;BME280;5897;42.640;23.310;2023-07-29T03:14:25;93812.47;;;18.04;77.67
11682;BME280;5897;42.640;23.310;2023-07-29T03:16:51;93808.50;;;18.05;76.86
11682;BME280;5897;42.640;23.310;2023-07-29T03:19:18;93806.59;;;18.11;75.80
11682;BME280;5897;42.640;23.310;2023-07-29T03:21:47;93806.41;;;18.14;75.47
11682;BME280;5897;42.640;23.310;2023-07-29T03:24:13;93807.72;;;18.19;75.75
11682;BME280;5897;42.640;23.310;2023-07-29T03:26:40;93809.97;;;18.20;75.91
11682;BME280;5897;42.640;23.310;2023-07-29T03:29:07;93803.19;;;18.16;76.24
11682;BME280;5897;42.640;23.310;2023-07-29T03:31:33;93806.47;;;18.20;75.94
11682;BME280;5897;42.640;23.310;2023-07-29T03:34:00;93807.25;;;18.20;76.27
11682;BME280;5897;42.640;23.310;2023-07-29T03:36:27;93805.81;;;18.25;76.30
11682;BME280;5897;42.640;23.310;2023-07-29T03:38:56;93803.91;;;18.31;75.84
11682;BME280;5897;42.640;23.310;2023-07-29T03:41:23;93809.19;;;18.34;76.00
11682;BME280;5897;42.640;23.310;2023-07-29T03:43:50;93815.75;;;18.42;75.73
11682;BME280;5897;42.640;23.310;2023-07-29T03:46:17;93809.28;;;18.40;75.71
11682;BME280;5897;42.640;23.310;2023-07-29T03:48:46;93805.81;;;18.45;75.23
11682;BME280;5897;42.640;23.310;2023-07-29T03:51:13;93805.91;;;18.50;74.97
11682;BME280;5897;42.640;23.310;2023-07-29T03:53:40;93805.69;;;18.54;74.66
11682;BME280;5897;42.640;23.310;2023-07-29T03:56:08;93805.28;;;18.61;75.09
11682;BME280;5897;42.640;23.310;2023-07-29T03:58:35;93808.81;;;18.67;74.75
11682;BME280;5897;42.640;23.310;2023-07-29T04:01:01;93808.44;;;18.74;73.77
11682;BME280;5897;42.640;23.310;2023-07-29T04:03:29;93810.19;;;18.77;74.10
11682;BME280;5897;42.640;23.310;2023-07-29T04:05:56;93809.28;;;18.85;74.20
11682;BME280;5897;42.640;23.310;2023-07-29T04:08:23;93808.81;;;18.87;75.18
11682;BME280;5897;42.640;23.310;2023-07-29T04:10:50;93817.56;;;18.91;74.92
11682;BME280;5897;42.640;23.310;2023-07-29T04:13:18;93824.84;;;18.99;75.16
11682;BME280;5897;42.640;23.310;2023-07-29T04:15:45;93823.44;;;19.04;76.03
11682;BME280;5897;42.640;23.310;2023-07-29T04:18:11;93818.22;;;19.06;75.67
11682;BME280;5897;42.640;23.310;2023-07-29T04:20:38;93817.78;;;19.13;74.25
11682;BME280;5897;42.640;23.310;2023-07-29T04:23:05;93813.63;;;19.17;73.61
11682;BME280;5897;42.640;23.310;2023-07-29T04:25:31;93814.34;;;19.18;73.46
11682;BME280;5897;42.640;23.310;2023-07-29T04:27:58;93812.72;;;19.26;73.33
11682;BME280;5897;42.640;23.310;2023-07-29T04:30:26;93823.00;;;19.31;71.86
11682;BME280;5897;42.640;23.310;2023-07-29T04:32:53;93813.09;;;19.39;72.02
11682;BME280;5897;42.640;23.310;2023-07-29T04:35:20;93826.63;;;19.48;72.28
11682;BME280;5897;42.640;23.310;2023-07-29T04:37:46;93822.22;;;19.56;73.42
11682;BME280;5897;42.640;23.310;2023-07-29T04:40:13;93829.97;;;19.63;73.28
11682;BME280;5897;42.640;23.310;2023-07-29T04:42:40;93822.28;;;19.67;72.25
11682;BME280;5897;42.640;23.310;2023-07-29T04:45:07;93807.59;;;19.70;71.39
11682;BME280;5897;42.640;23.310;2023-07-29T04:47:37;93815.91;;;19.81;71.69
11682;BME280;5897;42.640;23.310;2023-07-29T04:50:04;93820.22;;;19.87;70.24
11682;BME280;5897;42.640;23.310;2023-07-29T04:52:31;93823.97;;;19.90;70.41
11682;BME280;5897;42.640;23.310;2023-07-29T04:54:58;93829.75;;;19.97;69.96
11682;BME280;5897;42.640;23.310;2023-07-29T04:57:25;93830.06;;;20.05;70.35
11682;BME280;5897;42.640;23.310;2023-07-29T04:59:51;93836.88;;;20.15;70.25
11682;BME280;5897;42.640;23.310;2023-07-29T05:02:18;93836.22;;;20.31;70.34
11682;BME280;5897;42.640;23.310;2023-07-29T05:04:47;93842.97;;;20.35;70.09
11682;BME280;5897;42.640;23.310;2023-07-29T05:07:14;93846.28;;;20.45;69.40
11682;BME280;5897;42.640;23.310;2023-07-29T05:09:41;93845.81;;;20.52;69.33
11682;BME280;5897;42.640;23.310;2023-07-29T05:12:08;93844.81;;;20.55;67.83
11682;BME280;5897;42.640;23.310;2023-07-29T05:14:35;93849.34;;;20.58;67.68
11682;BME280;5897;42.640;23.310;2023-07-29T05:17:01;93835.63;;;20.58;66.85
11682;BME280;5897;42.640;23.310;2023-07-29T05:19:28;93848.16;;;20.70;67.05
11682;BME280;5897;42.640;23.310;2023-07-29T05:21:56;93854.41;;;20.76;67.79
11682;BME280;5897;42.640;23.310;2023-07-29T05:24:23;93849.25;;;20.89;68.44
11682;BME280;5897;42.640;23.310;2023-07-29T05:26:50;93852.75;;;20.95;68.50
11682;BME280;5897;42.640;23.310;2023-07-29T05:29:17;93850.06;;;21.06;68.61
11682;BME280;5897;42.640;23.310;2023-07-29T05:31:44;93850.38;;;21.19;68.35
11682;BME280;5897;42.640;23.310;2023-07-29T05:34:10;93849.34;;;21.16;66.63
11682;BME280;5897;42.640;23.310;2023-07-29T05:36:37;93851.38;;;21.32;66.30
11682;BME280;5897;42.640;23.310;2023-07-29T05:39:05;93850.38;;;21.41;65.72
11682;BME280;5897;42.640;23.310;2023-07-29T05:41:32;93855.91;;;21.52;65.54
11682;BME280;5897;42.640;23.310;2023-07-29T05:43:59;93864.41;;;21.59;66.13
11682;BME280;5897;42.640;23.310;2023-07-29T05:46:26;93862.47;;;21.76;64.58
11682;BME280;5897;42.640;23.310;2023-07-29T05:48:53;93856.22;;;21.92;63.99
11682;BME280;5897;42.640;23.310;2023-07-29T05:51:19;93870.22;;;22.00;62.80
11682;BME280;5897;42.640;23.310;2023-07-29T05:53:46;93864.22;;;22.01;62.19
11682;BME280;5897;42.640;23.310;2023-07-29T05:56:14;93867.47;;;22.11;61.40
11682;BME280;5897;42.640;23.310;2023-07-29T05:58:41;93861.44;;;22.23;60.86
11682;BME280;5897;42.640;23.310;2023-07-29T06:01:08;93864.44;;;22.36;58.93
11682;BME280;5897;42.640;23.310;2023-07-29T06:03:35;93863.41;;;22.39;57.99
11682;BME280;5897;42.640;23.310;2023-07-29T06:06:01;93869.44;;;22.49;58.11
11682;BME280;5897;42.640;23.310;2023-07-29T06:08:28;93865.16;;;22.59;58.85
11682;BME280;5897;42.640;23.310;2023-07-29T06:10:55;93851.66;;;22.61;59.72
11682;BME280;5897;42.640;23.310;2023-07-29T06:13:23;93859.34;;;22.79;59.66
11682;BME280;5897;42.640;23.310;2023-07-29T06:15:50;93860.09;;;22.85;59.25
11682;BME280;5897;42.640;23.310;2023-07-29T06:18:16;93861.03;;;22.98;58.83
11682;BME280;5897;42.640;23.310;2023-07-29T06:20:43;93853.72;;;23.06;58.32
11682;BME280;5897;42.640;23.310;2023-07-29T06:23:10;93855.69;;;23.17;58.27
11682;BME280;5897;42.640;23.310;2023-07-29T06:25:37;93850.41;;;23.30;56.07
11682;BME280;5897;42.640;23.310;2023-07-29T06:28:03;93838.09;;;23.31;55.80
11682;BME280;5897;42.640;23.310;2023-07-29T06:30:32;93849.09;;;23.36;55.80
11682;BME280;5897;42.640;23.310;2023-07-29T06:32:58;93841.00;;;23.49;56.20
11682;BME280;5897;42.640;23.310;2023-07-29T06:35:25;93844.66;;;23.63;55.68
11682;BME280;5897;42.640;23.310;2023-07-29T06:37:52;93846.59;;;23.73;55.25
11682;BME280;5897;42.640;23.310;2023-07-29T06:40:19;93843.13;;;23.67;56.18
11682;BME280;5897;42.640;23.310;2023-07-29T06:42:45;93835.78;;;23.81;54.20
11682;BME280;5897;42.640;23.310;2023-07-29T06:45:12;93833.41;;;23.96;53.54
11682;BME280;5897;42.640;23.310;2023-07-29T06:47:42;93832.53;;;24.12;54.05
11682;BME280;5897;42.640;23.310;2023-07-29T06:50:09;93831.25;;;24.13;54.50
11682;BME280;5897;42.640;23.310;2023-07-29T06:52:36;93837.16;;;24.28;52.83
11682;BME280;5897;42.640;23.310;2023-07-29T06:55:04;93839.81;;;24.39;52.30
11682;BME280;5897;42.640;23.310;2023-07-29T06:57:30;93840.72;;;24.47;52.16
11682;BME280;5897;42.640;23.310;2023-07-29T06:59:57;93838.63;;;24.58;51.90
11682;BME280;5897;42.640;23.310;2023-07-29T07:02:24;93845.91;;;24.56;49.37
11682;BME280;5897;42.640;23.310;2023-07-29T07:04:52;93832.81;;;24.62;50.45
11682;BME280;5897;42.640;23.310;2023-07-29T07:07:19;93845.22;;;24.74;54.17
11682;BME280;5897;42.640;23.310;2023-07-29T07:09:46;93845.50;;;24.94;51.95
11682;BME280;5897;42.640;23.310;2023-07-29T07:12:12;93842.91;;;25.02;49.77
11682;BME280;5897;42.640;23.310;2023-07-29T07:14:39;93838.50;;;25.12;51.14
11682;BME280;5897;42.640;23.310;2023-07-29T07:17:06;93828.03;;;25.23;53.56
11682;BME280;5897;42.640;23.310;2023-07-29T07:19:33;93838.47;;;25.36;51.32
11682;BME280;5897;42.640;23.310;2023-07-29T07:22:01;93835.16;;;25.56;47.34
11682;BME280;5897;42.640;23.310;2023-07-29T07:24:28;93830.03;;;25.47;46.29
11682;BME280;5897;42.640;23.310;2023-07-29T07:26:55;93821.63;;;25.52;46.98
11682;BME280;5897;42.640;23.310;2023-07-29T07:29:21;93825.88;;;25.53;50.24
11682;BME280;5897;42.640;23.310;2023-07-29T07:31:50;93809.00;;;25.57;48.09
11682;BME280;5897;42.640;23.310;2023-07-29T07:34:18;93832.47;;;25.69;47.73
11682;BME280;5897;42.640;23.310;2023-07-29T07:36:46;93828.84;;;25.92;48.14
11682;BME280;5897;42.640;23.310;2023-07-29T07:39:14;93820.16;;;25.83;47.50
11682;BME280;5897;42.640;23.310;2023-07-29T07:41:41;93827.09;;;26.08;45.44
11682;BME280;5897;42.640;23.310;2023-07-29T07:44:08;93816.28;;;25.91;45.88
11682;BME280;5897;42.640;23.310;2023-07-29T07:46:36;93812.50;;;26.07;45.74
11682;BME280;5897;42.640;23.310;2023-07-29T07:49:03;93828.63;;;26.35;43.13
11682;BME280;5897;42.640;23.310;2023-07-29T07:51:29;93830.88;;;26.36;44.25
11682;BME280;5897;42.640;23.310;2023-07-29T07:53:56;93829.31;;;26.54;42.02
11682;BME280;5897;42.640;23.310;2023-07-29T07:56:24;93825.63;;;26.64;44.92
11682;BME280;5897;42.640;23.310;2023-07-29T07:58:51;93829.22;;;26.72;43.21
11682;BME280;5897;42.640;23.310;2023-07-29T08:01:17;93837.66;;;26.80;43.51
11682;BME280;5897;42.640;23.310;2023-07-29T08:03:45;93825.94;;;26.87;44.06
11682;BME280;5897;42.640;23.310;2023-07-29T08:06:11;93830.09;;;26.93;44.45
11682;BME280;5897;42.640;23.310;2023-07-29T08:08:38;93825.91;;;27.13;46.29
11682;BME280;5897;42.640;23.310;2023-07-29T08:11:05;93829.88;;;27.30;45.06
11682;BME280;5897;42.640;23.310;2023-07-29T08:13:33;93830.66;;;27.51;40.95
11682;BME280;5897;42.640;23.310;2023-07-29T08:15:59;93828.59;;;27.65;43.33
11682;BME280;5897;42.640;23.310;2023-07-29T08:18:26;93836.03;;;27.83;42.01
11682;BME280;5897;42.640;23.310;2023-07-29T08:20:53;93839.03;;;27.85;41.50
11682;BME280;5897;42.640;23.310;2023-07-29T08:23:20;93831.84;;;27.56;40.45
11682;BME280;5897;42.640;23.310;2023-07-29T08:25:52;93830.09;;;27.79;38.98
11682;BME280;5897;42.640;23.310;2023-07-29T08:28:19;93829.31;;;27.78;41.52
11682;BME280;5897;42.640;23.310;2023-07-29T08:30:47;93834.47;;;27.95;42.62
11682;BME280;5897;42.640;23.310;2023-07-29T08:33:14;93833.28;;;28.03;42.02
11682;BME280;5897;42.640;23.310;2023-07-29T08:35:41;93826.78;;;28.21;40.95
11682;BME280;5897;42.640;23.310;2023-07-29T08:38:08;93839.53;;;28.37;41.27
11682;BME280;5897;42.640;23.310;2023-07-29T08:40:37;93816.19;;;28.61;38.54
11682;BME280;5897;42.640;23.310;2023-07-29T08:43:05;93831.97;;;28.66;39.90
11682;BME280;5897;42.640;23.310;2023-07-29T08:45:34;93826.00;;;28.90;36.87
11682;BME280;5897;42.640;23.310;2023-07-29T08:48:07;93822.88;;;28.93;36.61
11682;BME280;5897;42.640;23.310;2023-07-29T08:50:35;93819.69;;;28.82;37.73
11682;BME280;5897;42.640;23.310;2023-07-29T08:53:03;93820.59;;;29.05;38.89
11682;BME280;5897;42.640;23.310;2023-07-29T08:55:30;93816.22;;;29.24;37.50
11682;BME280;5897;42.640;23.310;2023-07-29T08:57:58;93823.19;;;29.46;36.57
11682;BME280;5897;42.640;23.310;2023-07-29T09:00:25;93815.38;;;29.44;36.82
11682;BME280;5897;42.640;23.310;2023-07-29T09:02:53;93818.41;;;29.54;34.13
11682;BME280;5897;42.640;23.310;2023-07-29T09:05:21;93815.06;;;29.55;35.88
11682;BME280;5897;42.640;23.310;2023-07-29T09:07:51;93812.41;;;29.42;36.04
11682;BME280;5897;42.640;23.310;2023-07-29T09:10:21;93806.91;;;29.57;35.89
11682;BME280;5897;42.640;23.310;2023-07-29T09:12:48;93804.94;;;29.80;35.12
11682;BME280;5897;42.640;23.310;2023-07-29T09:15:26;93797.16;;;30.01;34.29
11682;BME280;5897;42.640;23.310;2023-07-29T09:17:53;93800.50;;;30.07;32.97
11682;BME280;5897;42.640;23.310;2023-07-29T09:20:25;93792.19;;;30.22;32.07
11682;BME280;5897;42.640;23.310;2023-07-29T09:22:53;93800.19;;;30.26;32.00
11682;BME280;5897;42.640;23.310;2023-07-29T09:25:23;93795.00;;;30.37;31.69
11682;BME280;5897;42.640;23.310;2023-07-29T09:27:50;93789.22;;;30.58;30.16
11682;BME280;5897;42.640;23.310;2023-07-29T09:30:17;93789.75;;;30.79;30.20
11682;BME280;5897;42.640;23.310;2023-07-29T09:32:44;93790.84;;;30.98;29.35
11682;BME280;5897;42.640;23.310;2023-07-29T09:35:12;93783.53;;;31.10;29.59
11682;BME280;5897;42.640;23.310;2023-07-29T09:37:40;93783.16;;;31.14;29.66
11682;BME280;5897;42.640;23.310;2023-07-29T09:40:13;93788.19;;;31.23;27.37
11682;BME280;5897;42.640;23.310;2023-07-29T09:42:47;93779.34;;;31.49;28.73
11682;BME280;5897;42.640;23.310;2023-07-29T09:45:19;93777.91;;;31.40;27.26
11682;BME280;5897;42.640;23.310;2023-07-29T09:47:46;93778.19;;;31.52;28.28
11682;BME280;5897;42.640;23.310;2023-07-29T09:50:13;93769.97;;;31.61;28.41
11682;BME280;5897;42.640;23.310;2023-07-29T09:52:41;93777.81;;;31.95;28.75
11682;BME280;5897;42.640;23.310;2023-07-29T09:55:09;93769.59;;;32.29;28.25
11682;BME280;5897;42.640;23.310;2023-07-29T09:57:37;93763.38;;;32.55;27.10
11682;BME280;5897;42.640;23.310;2023-07-29T10:00:05;93757.84;;;32.47;26.57
11682;BME280;5897;42.640;23.310;2023-07-29T10:02:37;93765.03;;;32.58;25.09
11682;BME280;5897;42.640;23.310;2023-07-29T10:05:05;93761.72;;;32.35;24.42
11682;BME280;5897;42.640;23.310;2023-07-29T10:07:33;93755.75;;;32.31;25.77
11682;BME280;5897;42.640;23.310;2023-07-29T10:10:04;93762.06;;;32.56;26.72
11682;BME280;5897;42.640;23.310;2023-07-29T10:12:31;93759.69;;;32.69;26.60
11682;BME280;5897;42.640;23.310;2023-07-29T10:14:59;93759.53;;;32.67;27.51
11682;BME280;5897;42.640;23.310;2023-07-29T10:17:26;93736.72;;;32.78;25.46
11682;BME280;5897;42.640;23.310;2023-07-29T10:19:55;93748.97;;;32.83;26.73
11682;BME280;5897;42.640;23.310;2023-07-29T10:22:25;93751.53;;;33.22;24.98
11682;BME280;5897;42.640;23.310;2023-07-29T10:24:57;93712.47;;;33.24;24.16
11682;BME280;5897;42.640;23.310;2023-07-29T10:27:28;93743.50;;;33.53;25.10
11682;BME280;5897;42.640;23.310;2023-07-29T10:29:55;93735.63;;;33.08;24.25
11682;BME280;5897;42.640;23.310;2023-07-29T10:32:25;93736.00;;;33.21;24.84
11682;BME280;5897;42.640;23.310;2023-07-29T10:34:53;93726.38;;;33.49;26.14
11682;BME280;5897;42.640;23.310;2023-07-29T10:37:20;93721.28;;;33.81;23.61
11682;BME280;5897;42.640;23.310;2023-07-29T10:39:52;93722.69;;;33.99;23.53
11682;BME280;5897;42.640;23.310;2023-07-29T10:42:20;93726.53;;;34.04;23.84
11682;BME280;5897;42.640;23.310;2023-07-29T10:44:49;93721.94;;;33.72;23.44
11682;BME280;5897;42.640;23.310;2023-07-29T10:47:18;93705.53;;;33.95;23.54
11682;BME280;5897;42.640;23.310;2023-07-29T10:49:47;93708.66;;;34.35;23.07
11682;BME280;5897;42.640;23.310;2023-07-29T10:52:14;93714.34;;;34.64;22.52
11682;BME280;5897;42.640;23.310;2023-07-29T10:54:42;93706.41;;;34.89;22.46
11682;BME280;5897;42.640;23.310;2023-07-29T10:57:13;93689.16;;;35.02;21.25
11682;BME280;5897;42.640;23.310;2023-07-29T10:59:40;93691.66;;;34.98;22.88
11682;BME280;5897;42.640;23.310;2023-07-29T11:02:17;93697.72;;;35.32;22.10
11682;BME280;5897;42.640;23.310;2023-07-29T11:04:49;93676.41;;;35.29;20.63
11682;BME280;5897;42.640;23.310;2023-07-29T11:07:24;93691.91;;;35.59;22.22
11682;BME280;5897;42.640;23.310;2023-07-29T11:09:55;93688.94;;;35.76;21.95
11682;BME280;5897;42.640;23.310;2023-07-29T11:12:43;93697.56;;;35.99;20.70
11682;BME280;5897;42.640;23.310;2023-07-29T11:15:16;93693.19;;;36.17;20.84
11682;BME280;5897;42.640;23.310;2023-07-29T11:17:45;93693.94;;;36.27;20.27
11682;BME280;5897;42.640;23.310;2023-07-29T11:20:13;93691.72;;;36.16;19.98
11682;BME280;5897;42.640;23.310;2023-07-29T11:22:41;93687.00;;;36.09;21.08
11682;BME280;5897;42.640;23.310;2023-07-29T11:25:09;93686.25;;;36.18;19.74
11682;BME280;5897;42.640;23.310;2023-07-29T11:27:36;93681.34;;;36.28;18.91
11682;BME280;5897;42.640;23.310;2023-07-29T11:30:05;93682.88;;;36.10;19.93
11682;BME280;5897;42.640;23.310;2023-07-29T11:32:34;93680.53;;;36.37;19.70
11682;BME280;5897;42.640;23.310;2023-07-29T11:35:04;93675.97;;;35.92;20.04
11682;BME280;5897;42.640;23.310;2023-07-29T11:37:32;93674.34;;;36.29;19.62
11682;BME280;5897;42.640;23.310;2023-07-29T11:39:59;93674.66;;;36.54;19.04
11682;BME280;5897;42.640;23.310;2023-07-29T11:42:27;93666.91;;;36.64;20.42
11682;BME280;5897;42.640;23.310;2023-07-29T11:44:56;93663.41;;;36.96;19.76
11682;BME280;5897;42.640;23.310;2023-07-29T11:47:26;93666.47;;;37.21;20.22
11682;BME280;5897;42.640;23.310;2023-07-29T11:49:53;93645.16;;;37.18;19.15
11682;BME280;5897;42.640;23.310;2023-07-29T11:52:21;93666.16;;;37.38;19.73
11682;BME280;5897;42.640;23.310;2023-07-29T11:54:49;93654.16;;;37.70;19.83
11682;BME280;5897;42.640;23.310;2023-07-29T11:57:16;93657.34;;;37.87;18.95
11682;BME280;5897;42.640;23.310;2023-07-29T11:59:43;93658.47;;;37.94;19.25
11682;BME280;5897;42.640;23.310;2023-07-29T12:02:13;93660.78;;;37.86;18.91
11682;BME280;5897;42.640;23.310;2023-07-29T12:04:41;93658.19;;;37.90;19.40
11682;BME280;5897;42.640;23.310;2023-07-29T12:07:08;93643.53;;;38.03;18.86
11682;BME280;5897;42.640;23.310;2023-07-29T12:09:37;93648.66;;;38.18;19.09
11682;BME280;5897;42.640;23.310;2023-07-29T12:12:05;93640.94;;;38.07;18.00
11682;BME280;5897;42.640;23.310;2023-07-29T12:14:32;93636.78;;;38.19;18.16
11682;BME280;5897;42.640;23.310;2023-07-29T12:17:00;93644.50;;;38.19;18.29
11682;BME280;5897;42.640;23.310;2023-07-29T12:19:31;93644.84;;;38.36;17.67
11682;BME280;5897;42.640;23.310;2023-07-29T12:21:59;93632.09;;;38.47;16.86
11682;BME280;5897;42.640;23.310;2023-07-29T12:24:26;93632.09;;;38.58;17.82
11682;BME280;5897;42.640;23.310;2023-07-29T12:26:54;93628.44;;;38.81;18.28
11682;BME280;5897;42.640;23.310;2023-07-29T12:29:21;93631.59;;;38.62;16.98
11682;BME280;5897;42.640;23.310;2023-07-29T12:31:48;93621.56;;;38.47;18.00
11682;BME280;5897;42.640;23.310;2023-07-29T12:34:18;93629.78;;;38.55;17.85
11682;BME280;5897;42.640;23.310;2023-07-29T12:36:46;93627.91;;;38.71;16.92
11682;BME280;5897;42.640;23.310;2023-07-29T12:39:17;93611.22;;;38.63;18.55
11682;BME280;5897;42.640;23.310;2023-07-29T12:41:44;93619.25;;;38.92;17.19
11682;BME280;5897;42.640;23.310;2023-07-29T12:44:12;93624.28;;;38.93;17.10
11682;BME280;5897;42.640;23.310;2023-07-29T12:46:39;93624.38;;;38.95;17.46
11682;BME280;5897;42.640;23.310;2023-07-29T12:49:06;93610.59;;;39.01;17.11
11682;BME280;5897;42.640;23.310;2023-07-29T12:51:33;93624.59;;;39.11;17.36
11682;BME280;5897;42.640;23.310;2023-07-29T12:54:00;93620.69;;;38.93;15.73
11682;BME280;5897;42.640;23.310;2023-07-29T12:56:28;93615.06;;;38.93;17.18
11682;BME280;5897;42.640;23.310;2023-07-29T12:58:56;93607.28;;;39.05;16.96
11682;BME280;5897;42.640;23.310;2023-07-29T13:01:24;93621.59;;;38.84;17.58
11682;BME280;5897;42.640;23.310;2023-07-29T13:03:51;93623.81;;;38.85;17.62